sensor_id;sensor_type;location;lat;lon;timestamp;P1;durP1;ratioP1;P2;durP2;ratioP2
42338;SDS011;27993;45.392;10.918;2022-09-24T00:01:34;6.28;;;3.60;;
42338;SDS011;27993;45.392;10.918;2022-09-24T00:04:06;4.80;;;3.37;;
42338;SDS011;27993;45.392;10.918;2022-09-24T00:06:40;4.55;;;2.97;;
42338;SDS011;27993;45.392;10.918;2022-09-24T00:09:16;5.57;;;3.58;;
42338;SDS011;27993;45.392;10.918;2022-09-24T00:11:50;12.13;;;3.22;;
42338;SDS011;27993;45.392;10.918;2022-09-24T00:14:22;6.45;;;2.78;;
42338;SDS011;27993;45.392;10.918;2022-09-24T00:16:53;5.72;;;3.30;;
42338;SDS011;27993;45.392;10.918;2022-09-24T00:19:23;7.67;;;3.10;;
42338;SDS011;27993;45.392;10.918;2022-09-24T00:21:54;5.55;;;3.17;;
42338;SDS011;27993;45.392;10.918;2022-09-24T00:24:25;5.40;;;2.58;;
42338;SDS011;27993;45.392;10.918;2022-09-24T00:27:14;5.25;;;3.00;;
42338;SDS011;27993;45.392;10.918;2022-09-24T00:29:45;6.43;;;3.00;;
42338;SDS011;27993;45.392;10.918;2022-09-24T00:32:16;11.32;;;3.35;;
42338;SDS011;27993;45.392;10.918;2022-09-24T00:34:46;7.13;;;2.80;;
42338;SDS011;27993;45.392;10.918;2022-09-24T00:37:17;5.70;;;2.73;;
42338;SDS011;27993;45.392;10.918;2022-09-24T00:39:48;4.20;;;2.67;;
42338;SDS011;27993;45.392;10.918;2022-09-24T00:42:18;3.75;;;2.33;;
42338;SDS011;27993;45.392;10.918;2022-09-24T00:44:54;8.52;;;3.95;;
42338;SDS011;27993;45.392;10.918;2022-09-24T00:47:40;4.55;;;2.60;;
42338;SDS011;27993;45.392;10.918;2022-09-24T00:50:19;8.95;;;3.03;;
42338;SDS011;27993;45.392;10.918;2022-09-24T00:52:56;8.32;;;3.22;;
42338;SDS011;27993;45.392;10.918;2022-09-24T00:55:30;4.75;;;2.53;;
42338;SDS011;27993;45.392;10.918;2022-09-24T00:58:05;4.07;;;2.75;;
42338;SDS011;27993;45.392;10.918;2022-09-24T01:00:37;5.47;;;3.10;;
42338;SDS011;27993;45.392;10.918;2022-09-24T01:03:10;5.65;;;3.70;;
42338;SDS011;27993;45.392;10.918;2022-09-24T01:05:47;4.15;;;3.05;;
42338;SDS011;27993;45.392;10.918;2022-09-24T01:08:19;4.87;;;2.83;;
42338;SDS011;27993;45.392;10.918;2022-09-24T01:10:54;6.30;;;3.12;;
42338;SDS011;27993;45.392;10.918;2022-09-24T01:16:31;4.25;;;3.10;;
42338;SDS011;27993;45.392;10.918;2022-09-24T01:19:35;5.22;;;3.30;;
42338;SDS011;27993;45.392;10.918;2022-09-24T01:30:55;5.82;;;3.37;;
42338;SDS011;27993;45.392;10.918;2022-09-24T01:33:44;14.68;;;3.75;;
42338;SDS011;27993;45.392;10.918;2022-09-24T01:36:18;4.75;;;3.05;;
42338;SDS011;27993;45.392;10.918;2022-09-24T01:38:51;6.10;;;3.50;;
42338;SDS011;27993;45.392;10.918;2022-09-24T01:41:23;9.48;;;3.87;;
42338;SDS011;27993;45.392;10.918;2022-09-24T01:43:54;9.45;;;4.05;;
42338;SDS011;27993;45.392;10.918;2022-09-24T01:46:27;4.10;;;2.65;;
42338;SDS011;27993;45.392;10.918;2022-09-24T01:48:59;8.88;;;3.37;;
42338;SDS011;27993;45.392;10.918;2022-09-24T01:51:31;5.40;;;3.23;;
42338;SDS011;27993;45.392;10.918;2022-09-24T01:54:14;7.47;;;3.90;;
42338;SDS011;27993;45.392;10.918;2022-09-24T02:00:11;3.87;;;2.72;;
42338;SDS011;27993;45.392;10.918;2022-09-24T02:02:47;9.13;;;2.60;;
42338;SDS011;27993;45.392;10.918;2022-09-24T02:05:28;6.70;;;3.47;;
42338;SDS011;27993;45.392;10.918;2022-09-24T02:08:04;7.37;;;3.10;;
42338;SDS011;27993;45.392;10.918;2022-09-24T02:10:50;6.10;;;3.45;;
42338;SDS011;27993;45.392;10.918;2022-09-24T02:13:32;6.25;;;3.10;;
42338;SDS011;27993;45.392;10.918;2022-09-24T02:16:10;4.95;;;3.20;;
42338;SDS011;27993;45.392;10.918;2022-09-24T02:18:45;8.07;;;3.62;;
42338;SDS011;27993;45.392;10.918;2022-09-24T02:21:19;6.30;;;3.22;;
42338;SDS011;27993;45.392;10.918;2022-09-24T02:23:57;6.15;;;3.00;;
42338;SDS011;27993;45.392;10.918;2022-09-24T02:26:36;8.85;;;2.83;;
42338;SDS011;27993;45.392;10.918;2022-09-24T02:29:07;4.03;;;2.87;;
42338;SDS011;27993;45.392;10.918;2022-09-24T02:31:39;5.07;;;2.87;;
42338;SDS011;27993;45.392;10.918;2022-09-24T02:34:16;4.93;;;2.62;;
42338;SDS011;27993;45.392;10.918;2022-09-24T02:36:51;8.13;;;3.17;;
42338;SDS011;27993;45.392;10.918;2022-09-24T02:39:24;4.47;;;3.00;;
42338;SDS011;27993;45.392;10.918;2022-09-24T02:47:00;6.07;;;2.78;;
42338;SDS011;27993;45.392;10.918;2022-09-24T02:49:31;12.32;;;3.00;;
42338;SDS011;27993;45.392;10.918;2022-09-24T02:52:02;4.40;;;2.72;;
42338;SDS011;27993;45.392;10.918;2022-09-24T02:54:33;6.43;;;3.28;;
42338;SDS011;27993;45.392;10.918;2022-09-24T02:57:04;5.00;;;2.63;;
42338;SDS011;27993;45.392;10.918;2022-09-24T02:59:34;4.95;;;2.75;;
42338;SDS011;27993;45.392;10.918;2022-09-24T03:02:05;4.25;;;2.47;;
42338;SDS011;27993;45.392;10.918;2022-09-24T03:04:36;7.45;;;3.12;;
42338;SDS011;27993;45.392;10.918;2022-09-24T03:07:06;6.35;;;2.28;;
42338;SDS011;27993;45.392;10.918;2022-09-24T03:09:38;5.60;;;3.08;;
42338;SDS011;27993;45.392;10.918;2022-09-24T03:12:08;8.77;;;2.43;;
42338;SDS011;27993;45.392;10.918;2022-09-24T03:14:39;13.15;;;3.33;;
42338;SDS011;27993;45.392;10.918;2022-09-24T03:17:10;4.73;;;2.50;;
42338;SDS011;27993;45.392;10.918;2022-09-24T03:19:41;3.75;;;2.28;;
42338;SDS011;27993;45.392;10.918;2022-09-24T03:22:11;4.60;;;2.33;;
42338;SDS011;27993;45.392;10.918;2022-09-24T03:24:42;4.83;;;2.83;;
42338;SDS011;27993;45.392;10.918;2022-09-24T03:27:12;5.07;;;2.20;;
42338;SDS011;27993;45.392;10.918;2022-09-24T03:29:43;3.03;;;2.17;;
42338;SDS011;27993;45.392;10.918;2022-09-24T03:32:32;5.35;;;2.37;;
42338;SDS011;27993;45.392;10.918;2022-09-24T03:35:03;5.47;;;2.40;;
42338;SDS011;27993;45.392;10.918;2022-09-24T03:37:35;5.05;;;2.40;;
42338;SDS011;27993;45.392;10.918;2022-09-24T03:40:06;3.28;;;2.12;;
42338;SDS011;27993;45.392;10.918;2022-09-24T03:42:37;9.18;;;2.60;;
42338;SDS011;27993;45.392;10.918;2022-09-24T03:45:07;15.45;;;2.40;;
42338;SDS011;27993;45.392;10.918;2022-09-24T03:47:38;10.90;;;2.58;;
42338;SDS011;27993;45.392;10.918;2022-09-24T03:50:11;4.85;;;2.50;;
42338;SDS011;27993;45.392;10.918;2022-09-24T03:52:41;4.27;;;2.33;;
42338;SDS011;27993;45.392;10.918;2022-09-24T03:55:12;2.97;;;2.03;;
42338;SDS011;27993;45.392;10.918;2022-09-24T03:57:43;6.37;;;2.77;;
42338;SDS011;27993;45.392;10.918;2022-09-24T04:00:13;5.55;;;2.10;;
42338;SDS011;27993;45.392;10.918;2022-09-24T04:02:44;4.12;;;2.47;;
42338;SDS011;27993;45.392;10.918;2022-09-24T04:05:15;4.93;;;2.20;;
42338;SDS011;27993;45.392;10.918;2022-09-24T04:07:45;6.55;;;2.90;;
42338;SDS011;27993;45.392;10.918;2022-09-24T04:10:16;2.70;;;1.97;;
42338;SDS011;27993;45.392;10.918;2022-09-24T04:12:47;4.10;;;2.20;;
42338;SDS011;27993;45.392;10.918;2022-09-24T04:15:18;3.63;;;2.30;;
42338;SDS011;27993;45.392;10.918;2022-09-24T04:17:49;5.05;;;2.45;;
42338;SDS011;27993;45.392;10.918;2022-09-24T04:20:25;3.55;;;2.35;;
42338;SDS011;27993;45.392;10.918;2022-09-24T04:22:57;9.50;;;2.08;;
42338;SDS011;27993;45.392;10.918;2022-09-24T04:25:29;7.93;;;2.55;;
42338;SDS011;27993;45.392;10.918;2022-09-24T04:28:02;3.95;;;2.40;;
42338;SDS011;27993;45.392;10.918;2022-09-24T04:30:34;5.90;;;2.35;;
42338;SDS011;27993;45.392;10.918;2022-09-24T04:33:06;4.47;;;2.35;;
42338;SDS011;27993;45.392;10.918;2022-09-24T04:35:36;3.92;;;2.55;;
42338;SDS011;27993;45.392;10.918;2022-09-24T04:38:07;3.17;;;2.20;;
42338;SDS011;27993;45.392;10.918;2022-09-24T04:40:37;3.93;;;2.57;;
42338;SDS011;27993;45.392;10.918;2022-09-24T04:43:08;2.87;;;2.22;;
42338;SDS011;27993;45.392;10.918;2022-09-24T04:45:39;8.10;;;4.20;;
42338;SDS011;27993;45.392;10.918;2022-09-24T04:48:12;10.38;;;2.85;;
42338;SDS011;27993;45.392;10.918;2022-09-24T04:50:43;4.22;;;2.47;;
42338;SDS011;27993;45.392;10.918;2022-09-24T04:53:14;5.30;;;2.75;;
42338;SDS011;27993;45.392;10.918;2022-09-24T04:55:44;4.63;;;2.47;;
42338;SDS011;27993;45.392;10.918;2022-09-24T05:00:46;7.83;;;3.17;;
42338;SDS011;27993;45.392;10.918;2022-09-24T05:03:17;9.17;;;2.63;;
42338;SDS011;27993;45.392;10.918;2022-09-24T05:05:50;11.05;;;2.90;;
42338;SDS011;27993;45.392;10.918;2022-09-24T05:08:21;11.00;;;2.50;;
42338;SDS011;27993;45.392;10.918;2022-09-24T05:10:51;9.02;;;3.03;;
42338;SDS011;27993;45.392;10.918;2022-09-24T05:13:23;4.60;;;2.08;;
42338;SDS011;27993;45.392;10.918;2022-09-24T05:15:53;4.03;;;2.00;;
42338;SDS011;27993;45.392;10.918;2022-09-24T05:18:24;4.95;;;2.42;;
42338;SDS011;27993;45.392;10.918;2022-09-24T05:23:26;5.53;;;2.90;;
42338;SDS011;27993;45.392;10.918;2022-09-24T05:25:57;4.97;;;2.23;;
42338;SDS011;27993;45.392;10.918;2022-09-24T05:28:46;5.28;;;2.28;;
42338;SDS011;27993;45.392;10.918;2022-09-24T05:31:16;8.40;;;3.00;;
42338;SDS011;27993;45.392;10.918;2022-09-24T05:33:47;9.40;;;2.97;;
42338;SDS011;27993;45.392;10.918;2022-09-24T05:36:18;5.03;;;2.87;;
42338;SDS011;27993;45.392;10.918;2022-09-24T05:38:48;8.87;;;2.73;;
42338;SDS011;27993;45.392;10.918;2022-09-24T05:41:19;9.67;;;3.60;;
42338;SDS011;27993;45.392;10.918;2022-09-24T05:43:50;16.33;;;2.80;;
42338;SDS011;27993;45.392;10.918;2022-09-24T05:46:20;6.63;;;2.50;;
42338;SDS011;27993;45.392;10.918;2022-09-24T05:48:51;3.13;;;2.20;;
42338;SDS011;27993;45.392;10.918;2022-09-24T05:51:22;12.40;;;3.25;;
42338;SDS011;27993;45.392;10.918;2022-09-24T05:53:52;4.93;;;2.57;;
42338;SDS011;27993;45.392;10.918;2022-09-24T05:56:23;7.30;;;2.90;;
42338;SDS011;27993;45.392;10.918;2022-09-24T05:58:53;11.13;;;2.73;;
42338;SDS011;27993;45.392;10.918;2022-09-24T06:01:24;13.80;;;2.57;;
42338;SDS011;27993;45.392;10.918;2022-09-24T06:03:55;9.70;;;2.50;;
42338;SDS011;27993;45.392;10.918;2022-09-24T06:08:56;9.03;;;2.37;;
42338;SDS011;27993;45.392;10.918;2022-09-24T06:11:27;12.90;;;3.37;;
42338;SDS011;27993;45.392;10.918;2022-09-24T06:14:03;3.40;;;2.03;;
42338;SDS011;27993;45.392;10.918;2022-09-24T06:16:34;4.68;;;2.35;;
42338;SDS011;27993;45.392;10.918;2022-09-24T06:19:05;4.25;;;2.47;;
42338;SDS011;27993;45.392;10.918;2022-09-24T06:21:36;3.37;;;2.03;;
42338;SDS011;27993;45.392;10.918;2022-09-24T06:24:06;6.18;;;2.28;;
42338;SDS011;27993;45.392;10.918;2022-09-24T06:26:37;7.10;;;3.30;;
42338;SDS011;27993;45.392;10.918;2022-09-24T06:29:07;6.60;;;2.30;;
42338;SDS011;27993;45.392;10.918;2022-09-24T06:31:38;3.17;;;2.33;;
42338;SDS011;27993;45.392;10.918;2022-09-24T06:34:09;11.20;;;2.80;;
42338;SDS011;27993;45.392;10.918;2022-09-24T06:36:39;3.72;;;2.70;;
42338;SDS011;27993;45.392;10.918;2022-09-24T06:39:10;7.37;;;3.65;;
42338;SDS011;27993;45.392;10.918;2022-09-24T06:41:40;4.82;;;3.22;;
42338;SDS011;27993;45.392;10.918;2022-09-24T06:44:11;8.80;;;3.80;;
42338;SDS011;27993;45.392;10.918;2022-09-24T06:46:41;10.52;;;3.90;;
42338;SDS011;27993;45.392;10.918;2022-09-24T06:49:12;20.77;;;3.97;;
42338;SDS011;27993;45.392;10.918;2022-09-24T06:51:43;11.60;;;4.15;;
42338;SDS011;27993;45.392;10.918;2022-09-24T06:54:13;6.72;;;3.72;;
42338;SDS011;27993;45.392;10.918;2022-09-24T06:56:44;6.07;;;4.07;;
42338;SDS011;27993;45.392;10.918;2022-09-24T06:59:15;8.00;;;3.90;;
42338;SDS011;27993;45.392;10.918;2022-09-24T07:01:46;12.98;;;4.65;;
42338;SDS011;27993;45.392;10.918;2022-09-24T07:04:16;12.13;;;4.50;;
42338;SDS011;27993;45.392;10.918;2022-09-24T07:06:47;9.30;;;3.92;;
42338;SDS011;27993;45.392;10.918;2022-09-24T07:09:36;9.68;;;3.95;;
42338;SDS011;27993;45.392;10.918;2022-09-24T07:12:09;6.45;;;4.25;;
42338;SDS011;27993;45.392;10.918;2022-09-24T07:14:40;10.52;;;6.53;;
42338;SDS011;27993;45.392;10.918;2022-09-24T07:17:11;12.88;;;6.50;;
42338;SDS011;27993;45.392;10.918;2022-09-24T07:19:41;12.25;;;5.57;;
42338;SDS011;27993;45.392;10.918;2022-09-24T07:22:12;12.13;;;6.07;;
42338;SDS011;27993;45.392;10.918;2022-09-24T07:24:42;16.25;;;6.78;;
42338;SDS011;27993;45.392;10.918;2022-09-24T07:27:13;7.20;;;4.82;;
42338;SDS011;27993;45.392;10.918;2022-09-24T07:29:44;13.93;;;5.15;;
42338;SDS011;27993;45.392;10.918;2022-09-24T07:32:15;13.05;;;5.57;;
42338;SDS011;27993;45.392;10.918;2022-09-24T07:34:48;7.60;;;4.45;;
42338;SDS011;27993;45.392;10.918;2022-09-24T07:37:19;5.53;;;4.32;;
42338;SDS011;27993;45.392;10.918;2022-09-24T07:39:49;6.68;;;5.18;;
42338;SDS011;27993;45.392;10.918;2022-09-24T07:42:20;10.70;;;4.93;;
42338;SDS011;27993;45.392;10.918;2022-09-24T07:44:51;17.52;;;5.15;;
42338;SDS011;27993;45.392;10.918;2022-09-24T07:47:21;5.20;;;3.20;;
42338;SDS011;27993;45.392;10.918;2022-09-24T07:49:52;5.03;;;3.50;;
42338;SDS011;27993;45.392;10.918;2022-09-24T07:52:22;4.30;;;3.05;;
42338;SDS011;27993;45.392;10.918;2022-09-24T07:54:53;5.60;;;3.90;;
42338;SDS011;27993;45.392;10.918;2022-09-24T07:57:24;5.57;;;3.83;;
42338;SDS011;27993;45.392;10.918;2022-09-24T07:59:56;5.25;;;3.53;;
42338;SDS011;27993;45.392;10.918;2022-09-24T08:02:26;6.82;;;3.08;;
42338;SDS011;27993;45.392;10.918;2022-09-24T08:04:57;5.78;;;3.78;;
42338;SDS011;27993;45.392;10.918;2022-09-24T08:07:27;9.23;;;3.35;;
42338;SDS011;27993;45.392;10.918;2022-09-24T08:09:58;13.40;;;3.55;;
42338;SDS011;27993;45.392;10.918;2022-09-24T08:12:30;3.92;;;2.90;;
42338;SDS011;27993;45.392;10.918;2022-09-24T08:15:01;5.90;;;3.00;;
42338;SDS011;27993;45.392;10.918;2022-09-24T08:17:31;7.70;;;4.57;;
42338;SDS011;27993;45.392;10.918;2022-09-24T08:20:02;9.52;;;4.43;;
42338;SDS011;27993;45.392;10.918;2022-09-24T08:22:32;8.32;;;4.05;;
42338;SDS011;27993;45.392;10.918;2022-09-24T08:25:03;6.82;;;3.80;;
42338;SDS011;27993;45.392;10.918;2022-09-24T08:27:35;5.93;;;4.18;;
42338;SDS011;27993;45.392;10.918;2022-09-24T08:30:06;4.18;;;2.90;;
42338;SDS011;27993;45.392;10.918;2022-09-24T08:32:37;3.87;;;3.08;;
42338;SDS011;27993;45.392;10.918;2022-09-24T08:35:08;6.85;;;3.55;;
42338;SDS011;27993;45.392;10.918;2022-09-24T08:37:38;5.78;;;2.70;;
42338;SDS011;27993;45.392;10.918;2022-09-24T08:40:14;6.77;;;3.73;;
42338;SDS011;27993;45.392;10.918;2022-09-24T08:42:50;9.88;;;3.37;;
42338;SDS011;27993;45.392;10.918;2022-09-24T08:45:33;9.40;;;3.20;;
42338;SDS011;27993;45.392;10.918;2022-09-24T08:48:31;6.07;;;3.28;;
42338;SDS011;27993;45.392;10.918;2022-09-24T08:51:06;4.87;;;3.08;;
42338;SDS011;27993;45.392;10.918;2022-09-24T08:54:05;6.25;;;3.75;;
42338;SDS011;27993;45.392;10.918;2022-09-24T08:56:41;6.22;;;3.80;;
42338;SDS011;27993;45.392;10.918;2022-09-24T09:01:59;6.87;;;3.20;;
42338;SDS011;27993;45.392;10.918;2022-09-24T09:07:38;4.03;;;3.05;;
42338;SDS011;27993;45.392;10.918;2022-09-24T09:10:21;4.03;;;2.78;;
42338;SDS011;27993;45.392;10.918;2022-09-24T09:15:39;4.68;;;2.62;;
42338;SDS011;27993;45.392;10.918;2022-09-24T09:18:36;4.60;;;2.62;;
42338;SDS011;27993;45.392;10.918;2022-09-24T09:21:27;3.70;;;2.67;;
42338;SDS011;27993;45.392;10.918;2022-09-24T09:24:06;4.65;;;2.60;;
42338;SDS011;27993;45.392;10.918;2022-09-24T09:26:50;8.63;;;2.87;;
42338;SDS011;27993;45.392;10.918;2022-09-24T09:29:24;6.87;;;3.08;;
42338;SDS011;27993;45.392;10.918;2022-09-24T09:32:21;6.03;;;3.70;;
42338;SDS011;27993;45.392;10.918;2022-09-24T09:41:00;4.32;;;2.87;;
42338;SDS011;27993;45.392;10.918;2022-09-24T09:43:41;5.60;;;3.25;;
42338;SDS011;27993;45.392;10.918;2022-09-24T09:46:13;5.30;;;3.37;;
42338;SDS011;27993;45.392;10.918;2022-09-24T09:48:53;9.32;;;3.53;;
42338;SDS011;27993;45.392;10.918;2022-09-24T09:51:35;22.55;;;4.20;;
42338;SDS011;27993;45.392;10.918;2022-09-24T09:54:09;14.87;;;3.67;;
42338;SDS011;27993;45.392;10.918;2022-09-24T09:56:43;12.43;;;3.35;;
42338;SDS011;27993;45.392;10.918;2022-09-24T09:59:18;7.05;;;3.12;;
42338;SDS011;27993;45.392;10.918;2022-09-24T10:01:50;8.63;;;3.83;;
42338;SDS011;27993;45.392;10.918;2022-09-24T10:07:15;9.93;;;3.42;;
42338;SDS011;27993;45.392;10.918;2022-09-24T10:09:56;9.77;;;3.47;;
42338;SDS011;27993;45.392;10.918;2022-09-24T10:12:31;8.48;;;5.72;;
42338;SDS011;27993;45.392;10.918;2022-09-24T10:17:50;9.15;;;4.28;;
42338;SDS011;27993;45.392;10.918;2022-09-24T10:20:23;6.60;;;3.83;;
42338;SDS011;27993;45.392;10.918;2022-09-24T10:25:33;13.80;;;3.25;;
42338;SDS011;27993;45.392;10.918;2022-09-24T10:28:06;4.18;;;2.58;;
42338;SDS011;27993;45.392;10.918;2022-09-24T10:31:16;8.45;;;2.70;;
42338;SDS011;27993;45.392;10.918;2022-09-24T10:33:52;5.70;;;3.30;;
42338;SDS011;27993;45.392;10.918;2022-09-24T10:36:26;6.40;;;2.87;;
42338;SDS011;27993;45.392;10.918;2022-09-24T10:39:02;5.20;;;3.03;;
42338;SDS011;27993;45.392;10.918;2022-09-24T10:41:48;6.57;;;2.65;;
42338;SDS011;27993;45.392;10.918;2022-09-24T10:44:20;3.75;;;2.75;;
42338;SDS011;27993;45.392;10.918;2022-09-24T10:47:01;6.15;;;2.67;;
42338;SDS011;27993;45.392;10.918;2022-09-24T10:52:34;4.62;;;2.70;;
42338;SDS011;27993;45.392;10.918;2022-09-24T10:58:24;3.37;;;2.35;;
42338;SDS011;27993;45.392;10.918;2022-09-24T11:01:15;4.95;;;2.75;;
42338;SDS011;27993;45.392;10.918;2022-09-24T11:07:23;12.52;;;2.92;;
42338;SDS011;27993;45.392;10.918;2022-09-24T11:24:16;9.30;;;3.10;;
42338;SDS011;27993;45.392;10.918;2022-09-24T11:26:53;4.25;;;3.15;;
42338;SDS011;27993;45.392;10.918;2022-09-24T11:38:08;3.72;;;2.40;;
42338;SDS011;27993;45.392;10.918;2022-09-24T11:40:53;7.32;;;2.67;;
42338;SDS011;27993;45.392;10.918;2022-09-24T11:52:30;3.35;;;2.20;;
42338;SDS011;27993;45.392;10.918;2022-09-24T11:57:44;5.03;;;2.97;;
42338;SDS011;27993;45.392;10.918;2022-09-24T12:00:33;7.07;;;2.67;;
42338;SDS011;27993;45.392;10.918;2022-09-24T12:03:17;9.35;;;2.45;;
42338;SDS011;27993;45.392;10.918;2022-09-24T12:05:54;5.57;;;2.67;;
42338;SDS011;27993;45.392;10.918;2022-09-24T12:08:35;7.93;;;2.33;;
42338;SDS011;27993;45.392;10.918;2022-09-24T12:11:25;3.60;;;2.70;;
42338;SDS011;27993;45.392;10.918;2022-09-24T12:14:13;6.22;;;3.60;;
42338;SDS011;27993;45.392;10.918;2022-09-24T12:17:15;7.35;;;2.95;;
42338;SDS011;27993;45.392;10.918;2022-09-24T12:22:30;4.60;;;3.35;;
42338;SDS011;27993;45.392;10.918;2022-09-24T12:25:04;9.20;;;3.80;;
42338;SDS011;27993;45.392;10.918;2022-09-24T12:27:41;9.05;;;4.65;;
42338;SDS011;27993;45.392;10.918;2022-09-24T12:33:30;11.02;;;3.30;;
42338;SDS011;27993;45.392;10.918;2022-09-24T12:36:16;5.25;;;3.62;;
42338;SDS011;27993;45.392;10.918;2022-09-24T12:39:11;7.85;;;3.72;;
42338;SDS011;27993;45.392;10.918;2022-09-24T12:41:48;6.68;;;3.00;;
42338;SDS011;27993;45.392;10.918;2022-09-24T12:44:32;6.47;;;3.75;;
42338;SDS011;27993;45.392;10.918;2022-09-24T12:47:21;9.50;;;2.85;;
42338;SDS011;27993;45.392;10.918;2022-09-24T12:49:56;4.60;;;2.78;;
42338;SDS011;27993;45.392;10.918;2022-09-24T12:52:39;6.80;;;2.70;;
42338;SDS011;27993;45.392;10.918;2022-09-24T12:55:17;4.50;;;3.00;;
42338;SDS011;27993;45.392;10.918;2022-09-24T12:57:52;9.38;;;2.47;;
42338;SDS011;27993;45.392;10.918;2022-09-24T13:03:04;5.50;;;3.55;;
42338;SDS011;27993;45.392;10.918;2022-09-24T13:10:58;6.18;;;4.53;;
42338;SDS011;27993;45.392;10.918;2022-09-24T13:13:35;9.85;;;4.53;;
42338;SDS011;27993;45.392;10.918;2022-09-24T13:16:16;6.32;;;4.40;;
42338;SDS011;27993;45.392;10.918;2022-09-24T13:18:52;5.18;;;3.83;;
42338;SDS011;27993;45.392;10.918;2022-09-24T13:21:26;11.48;;;3.85;;
42338;SDS011;27993;45.392;10.918;2022-09-24T13:23:58;8.63;;;3.78;;
42338;SDS011;27993;45.392;10.918;2022-09-24T13:26:40;5.62;;;3.60;;
42338;SDS011;27993;45.392;10.918;2022-09-24T13:29:21;13.65;;;4.53;;
42338;SDS011;27993;45.392;10.918;2022-09-24T13:31:59;8.20;;;3.17;;
42338;SDS011;27993;45.392;10.918;2022-09-24T13:34:32;4.78;;;3.50;;
42338;SDS011;27993;45.392;10.918;2022-09-24T13:40:05;7.72;;;3.97;;
42338;SDS011;27993;45.392;10.918;2022-09-24T13:42:57;4.60;;;3.12;;
42338;SDS011;27993;45.392;10.918;2022-09-24T13:45:33;8.40;;;3.30;;
42338;SDS011;27993;45.392;10.918;2022-09-24T13:48:50;6.25;;;2.78;;
42338;SDS011;27993;45.392;10.918;2022-09-24T13:51:09;7.47;;;2.92;;
42338;SDS011;27993;45.392;10.918;2022-09-24T13:53:48;4.45;;;3.08;;
42338;SDS011;27993;45.392;10.918;2022-09-24T13:56:24;10.15;;;2.60;;
42338;SDS011;27993;45.392;10.918;2022-09-24T13:59:05;4.53;;;2.83;;
42338;SDS011;27993;45.392;10.918;2022-09-24T14:01:41;13.95;;;2.95;;
42338;SDS011;27993;45.392;10.918;2022-09-24T14:04:16;7.82;;;2.80;;
42338;SDS011;27993;45.392;10.918;2022-09-24T14:06:51;4.90;;;3.40;;
42338;SDS011;27993;45.392;10.918;2022-09-24T14:09:33;10.70;;;3.03;;
42338;SDS011;27993;45.392;10.918;2022-09-24T14:12:15;9.00;;;3.25;;
42338;SDS011;27993;45.392;10.918;2022-09-24T14:14:52;8.23;;;3.05;;
42338;SDS011;27993;45.392;10.918;2022-09-24T14:17:24;7.90;;;3.40;;
42338;SDS011;27993;45.392;10.918;2022-09-24T14:19:55;4.55;;;2.85;;
42338;SDS011;27993;45.392;10.918;2022-09-24T14:25:06;2.17;;;1.70;;
42338;SDS011;27993;45.392;10.918;2022-09-24T14:27:41;5.62;;;2.75;;
42338;SDS011;27993;45.392;10.918;2022-09-24T14:30:21;5.70;;;2.53;;
42338;SDS011;27993;45.392;10.918;2022-09-24T14:32:54;5.15;;;3.40;;
42338;SDS011;27993;45.392;10.918;2022-09-24T14:38:05;13.18;;;3.37;;
42338;SDS011;27993;45.392;10.918;2022-09-24T14:40:41;5.22;;;3.00;;
42338;SDS011;27993;45.392;10.918;2022-09-24T14:43:22;6.62;;;3.25;;
42338;SDS011;27993;45.392;10.918;2022-09-24T14:46:01;5.87;;;3.47;;
42338;SDS011;27993;45.392;10.918;2022-09-24T14:48:47;4.85;;;3.42;;
42338;SDS011;27993;45.392;10.918;2022-09-24T14:51:36;4.10;;;3.37;;
42338;SDS011;27993;45.392;10.918;2022-09-24T14:59:47;5.70;;;3.15;;
42338;SDS011;27993;45.392;10.918;2022-09-24T15:02:19;6.50;;;3.53;;
42338;SDS011;27993;45.392;10.918;2022-09-24T15:04:55;6.53;;;3.12;;
42338;SDS011;27993;45.392;10.918;2022-09-24T15:07:28;8.35;;;3.47;;
42338;SDS011;27993;45.392;10.918;2022-09-24T15:10:01;4.80;;;3.17;;
42338;SDS011;27993;45.392;10.918;2022-09-24T15:12:34;5.50;;;3.30;;
42338;SDS011;27993;45.392;10.918;2022-09-24T15:17:51;6.45;;;4.05;;
42338;SDS011;27993;45.392;10.918;2022-09-24T15:20:21;7.87;;;3.95;;
42338;SDS011;27993;45.392;10.918;2022-09-24T15:22:52;7.65;;;3.90;;
42338;SDS011;27993;45.392;10.918;2022-09-24T15:25:22;11.32;;;4.12;;
42338;SDS011;27993;45.392;10.918;2022-09-24T15:27:54;5.68;;;3.67;;
42338;SDS011;27993;45.392;10.918;2022-09-24T15:30:24;7.47;;;3.83;;
42338;SDS011;27993;45.392;10.918;2022-09-24T15:32:55;7.70;;;4.53;;
42338;SDS011;27993;45.392;10.918;2022-09-24T15:35:25;3.83;;;3.20;;
42338;SDS011;27993;45.392;10.918;2022-09-24T15:37:56;3.85;;;3.03;;
42338;SDS011;27993;45.392;10.918;2022-09-24T15:40:27;6.57;;;4.05;;
42338;SDS011;27993;45.392;10.918;2022-09-24T15:43:02;4.93;;;3.28;;
42338;SDS011;27993;45.392;10.918;2022-09-24T15:45:34;6.47;;;3.17;;
42338;SDS011;27993;45.392;10.918;2022-09-24T15:48:05;7.28;;;3.40;;
42338;SDS011;27993;45.392;10.918;2022-09-24T15:50:37;8.60;;;3.78;;
42338;SDS011;27993;45.392;10.918;2022-09-24T15:53:19;8.05;;;3.17;;
42338;SDS011;27993;45.392;10.918;2022-09-24T15:55:54;6.20;;;3.42;;
42338;SDS011;27993;45.392;10.918;2022-09-24T15:58:27;5.05;;;2.90;;
42338;SDS011;27993;45.392;10.918;2022-09-24T16:00:57;6.20;;;3.08;;
42338;SDS011;27993;45.392;10.918;2022-09-24T16:03:29;6.00;;;3.60;;
42338;SDS011;27993;45.392;10.918;2022-09-24T16:06:01;6.75;;;3.70;;
42338;SDS011;27993;45.392;10.918;2022-09-24T16:08:32;8.75;;;3.65;;
42338;SDS011;27993;45.392;10.918;2022-09-24T16:11:02;6.22;;;3.47;;
42338;SDS011;27993;45.392;10.918;2022-09-24T16:13:34;9.65;;;4.05;;
42338;SDS011;27993;45.392;10.918;2022-09-24T16:16:05;11.30;;;4.07;;
42338;SDS011;27993;45.392;10.918;2022-09-24T16:23:39;7.97;;;5.10;;
42338;SDS011;27993;45.392;10.918;2022-09-24T16:26:09;8.00;;;5.45;;
42338;SDS011;27993;45.392;10.918;2022-09-24T16:28:40;8.00;;;5.43;;
42338;SDS011;27993;45.392;10.918;2022-09-24T16:31:11;13.55;;;5.37;;
42338;SDS011;27993;45.392;10.918;2022-09-24T16:33:41;8.37;;;5.83;;
42338;SDS011;27993;45.392;10.918;2022-09-24T16:36:12;11.50;;;6.07;;
42338;SDS011;27993;45.392;10.918;2022-09-24T16:38:43;7.40;;;5.65;;
42338;SDS011;27993;45.392;10.918;2022-09-24T16:41:13;7.10;;;6.22;;
42338;SDS011;27993;45.392;10.918;2022-09-24T16:43:44;10.70;;;7.10;;
42338;SDS011;27993;45.392;10.918;2022-09-24T16:46:15;9.70;;;7.55;;
42338;SDS011;27993;45.392;10.918;2022-09-24T16:48:47;8.32;;;6.50;;
42338;SDS011;27993;45.392;10.918;2022-09-24T16:51:18;9.40;;;6.57;;
42338;SDS011;27993;45.392;10.918;2022-09-24T16:53:56;10.63;;;7.15;;
42338;SDS011;27993;45.392;10.918;2022-09-24T16:56:26;9.52;;;7.68;;
42338;SDS011;27993;45.392;10.918;2022-09-24T16:58:57;14.15;;;7.12;;
42338;SDS011;27993;45.392;10.918;2022-09-24T17:01:28;12.73;;;7.22;;
42338;SDS011;27993;45.392;10.918;2022-09-24T17:03:59;11.15;;;7.32;;
42338;SDS011;27993;45.392;10.918;2022-09-24T17:06:30;9.90;;;7.12;;
42338;SDS011;27993;45.392;10.918;2022-09-24T17:09:00;10.80;;;6.75;;
42338;SDS011;27993;45.392;10.918;2022-09-24T17:11:50;10.65;;;6.57;;
42338;SDS011;27993;45.392;10.918;2022-09-24T17:14:20;8.33;;;7.53;;
42338;SDS011;27993;45.392;10.918;2022-09-24T17:16:51;11.55;;;7.43;;
42338;SDS011;27993;45.392;10.918;2022-09-24T17:19:21;9.60;;;7.93;;
42338;SDS011;27993;45.392;10.918;2022-09-24T17:21:52;12.87;;;7.77;;
42338;SDS011;27993;45.392;10.918;2022-09-24T17:24:23;9.73;;;7.47;;
42338;SDS011;27993;45.392;10.918;2022-09-24T17:26:53;14.48;;;7.55;;